Time;durP1;ratioP1;P1;durP2;ratioP2;P2;SDS_P1;SDS_P2;PMS_P1;PMS_P2;Temp;Humidity;BMP_temperature;BMP_pressure;BME280_temperature;BME280_humidity;BME280_pressure;Samples;Min_cycle;Max_cycle;Signal;HPM_P1;HPM_P2
2021/12/15 00:01:32;;;;;;;24.52;11.82;;;;;;;;;;5076934;28;20025;-87
2021/12/15 00:03:58;;;;;;;21.80;12.13;;;;;;;;;;5058285;28;20461;-88
2021/12/15 00:06:24;;;;;;;24.15;12.77;;;;;;;;;;5084611;28;20116;-88
2021/12/15 00:08:53;;;;;;;24.00;10.85;;;;;;;;;;5059725;28;20100;-88
2021/12/15 00:11:19;;;;;;;19.03;10.23;;;;;;;;;;5085631;28;20464;-89
2021/12/15 00:13:46;;;;;;;22.35;11.27;;;;;;;;;;5087065;28;20364;-85
2021/12/15 00:16:14;;;;;;;25.92;11.35;;;;;;;;;;5082305;28;20471;-85
2021/12/15 00:18:41;;;;;;;22.77;11.10;;;;;;;;;;5057611;28;20056;-84
2021/12/15 00:21:12;;;;;;;17.27;9.07;;;;;;;;;;5070964;28;20483;-85
2021/12/15 00:23:38;;;;;;;16.75;8.65;;;;;;;;;;5072223;28;20040;-84
2021/12/15 00:26:04;;;;;;;19.75;11.38;;;;;;;;;;5079663;28;20021;-86
2021/12/15 00:28:30;;;;;;;22.50;10.93;;;;;;;;;;5060156;28;20031;-85
2021/12/15 00:30:56;;;;;;;9.63;5.28;;;;;;;;;;5070198;28;20033;-84
2021/12/15 00:33:21;;;;;;;19.55;9.48;;;;;;;;;;5068997;28;20031;-85
2021/12/15 00:35:47;;;;;;;22.35;11.27;;;;;;;;;;5078315;28;20021;-85
2021/12/15 00:38:14;;;;;;;26.65;13.15;;;;;;;;;;5061034;28;20020;-85
2021/12/15 00:40:39;;;;;;;26.02;13.95;;;;;;;;;;5069703;28;20472;-85
2021/12/15 00:43:05;;;;;;;27.17;11.95;;;;;;;;;;5063929;28;20028;-86
2021/12/15 00:45:31;;;;;;;21.02;10.70;;;;;;;;;;5058763;28;20037;-86
2021/12/15 00:47:57;;;;;;;20.63;10.48;;;;;;;;;;5058810;28;20028;-86
2021/12/15 00:50:27;;;;;;;18.85;11.63;;;;;;;;;;5081047;28;20040;-84
2021/12/15 00:52:53;;;;;;;23.40;10.80;;;;;;;;;;5065011;28;20021;-86
2021/12/15 00:55:22;;;;;;;21.73;11.13;;;;;;;;;;5061143;28;20036;-85
2021/12/15 00:57:48;;;;;;;17.30;8.98;;;;;;;;;;5071157;28;20151;-84
2021/12/15 01:00:23;;;;;;;19.05;10.90;;;;;;;;;;5079865;28;20602;-84
2021/12/15 01:02:50;;;;;;;23.38;10.68;;;;;;;;;;5061403;28;20491;-84
2021/12/15 01:05:18;;;;;;;23.15;12.15;;;;;;;;;;5060377;28;20460;-84
2021/12/15 01:07:45;;;;;;;17.73;9.85;;;;;;;;;;5080976;28;20064;-85
2021/12/15 01:10:15;;;;;;;22.77;9.98;;;;;;;;;;5060170;28;20028;-86
2021/12/15 01:20:59;;;;;;;17.83;9.15;;;;;;;;;;5062434;28;20186;-85
2021/12/15 01:23:30;;;;;;;19.50;9.52;;;;;;;;;;5057641;28;20499;-88
2021/12/15 01:26:12;;;;;;;17.73;9.95;;;;;;;;;;5071994;28;20082;-85
2021/12/15 01:28:38;;;;;;;16.75;9.52;;;;;;;;;;5064493;28;20025;-86
2021/12/15 01:31:05;;;;;;;19.05;9.50;;;;;;;;;;5071567;28;20051;-87
2021/12/15 01:33:31;;;;;;;17.38;10.20;;;;;;;;;;5080431;28;20021;-84
2021/12/15 01:35:59;;;;;;;18.13;10.15;;;;;;;;;;5083037;28;20029;-83
2021/12/15 01:38:28;;;;;;;18.45;8.48;;;;;;;;;;5057389;28;20044;-84
2021/12/15 01:40:55;;;;;;;20.77;10.50;;;;;;;;;;5056760;28;20543;-84
2021/12/15 01:43:33;;;;;;;15.55;8.20;;;;;;;;;;5073738;28;20366;-84
2021/12/15 01:49:16;;;;;;;20.05;10.43;;;;;;;;;;5061380;28;20170;-86
2021/12/15 01:51:42;;;;;;;15.32;9.00;;;;;;;;;;5063060;28;20053;-84
2021/12/15 01:54:09;;;;;;;17.30;8.80;;;;;;;;;;5067098;28;20467;-86
2021/12/15 01:56:35;;;;;;;12.93;7.95;;;;;;;;;;5061267;28;20100;-84
2021/12/15 01:59:02;;;;;;;15.68;8.32;;;;;;;;;;5071493;28;20028;-85
2021/12/15 02:01:29;;;;;;;22.63;10.48;;;;;;;;;;5075229;28;20424;-85
2021/12/15 02:03:55;;;;;;;17.05;9.18;;;;;;;;;;5068993;28;20040;-86
2021/12/15 02:06:21;;;;;;;19.30;9.75;;;;;;;;;;5063639;28;20170;-86
2021/12/15 02:08:48;;;;;;;14.18;8.20;;;;;;;;;;5070642;28;20037;-84
2021/12/15 02:11:14;;;;;;;17.00;8.93;;;;;;;;;;5079566;28;20082;-85
2021/12/15 02:13:39;;;;;;;12.27;7.85;;;;;;;;;;5067253;28;20079;-86
2021/12/15 02:16:06;;;;;;;17.40;9.15;;;;;;;;;;5060564;28;20528;-85
2021/12/15 02:18:35;;;;;;;17.85;8.75;;;;;;;;;;5070928;28;20140;-83
2021/12/15 02:21:07;;;;;;;17.70;9.45;;;;;;;;;;5058842;28;20051;-83
2021/12/15 02:23:39;;;;;;;19.90;11.85;;;;;;;;;;5064798;28;20032;-83
2021/12/15 02:26:18;;;;;;;18.05;10.15;;;;;;;;;;5081980;28;20415;-84
2021/12/15 02:28:47;;;;;;;16.70;8.27;;;;;;;;;;5083682;28;20035;-84
2021/12/15 02:31:35;;;;;;;16.75;9.93;;;;;;;;;;5066539;28;20441;-82
2021/12/15 02:39:31;;;;;;;14.43;8.05;;;;;;;;;;5066371;28;20372;-82
2021/12/15 02:41:57;;;;;;;18.80;9.93;;;;;;;;;;5077553;28;20029;-86
2021/12/15 02:44:24;;;;;;;13.77;8.07;;;;;;;;;;5065477;28;20468;-83
2021/12/15 02:46:51;;;;;;;21.20;9.30;;;;;;;;;;5079320;28;20491;-85
2021/12/15 02:49:22;;;;;;;18.17;8.10;;;;;;;;;;5080739;28;20067;-85
2021/12/15 02:51:50;;;;;;;22.77;12.00;;;;;;;;;;5059489;28;20512;-85
2021/12/15 02:54:17;;;;;;;18.10;10.30;;;;;;;;;;5062648;28;20028;-84
2021/12/15 02:56:45;;;;;;;18.67;11.35;;;;;;;;;;5063030;28;20024;-84
2021/12/15 02:59:13;;;;;;;21.52;11.23;;;;;;;;;;5070802;28;20414;-85
2021/12/15 03:07:10;;;;;;;22.13;10.10;;;;;;;;;;5067065;28;20039;-83
2021/12/15 03:17:43;;;;;;;14.00;8.07;;;;;;;;;;5062399;28;20079;-83
2021/12/15 03:20:10;;;;;;;17.05;8.25;;;;;;;;;;5063241;28;20396;-85
2021/12/15 03:22:36;;;;;;;13.60;6.68;;;;;;;;;;5081885;28;20032;-83
2021/12/15 03:25:03;;;;;;;19.17;10.07;;;;;;;;;;5078241;28;20386;-83
2021/12/15 03:33:27;;;;;;;16.38;8.35;;;;;;;;;;5082471;28;20021;-84
2021/12/15 03:33:34;;;;;;;16.92;10.27;;;;;;;;;;5061023;28;20036;-82
2021/12/15 03:36:08;;;;;;;12.77;6.25;;;;;;;;;;5063161;28;20070;-82
2021/12/15 03:38:34;;;;;;;7.63;4.38;;;;;;;;;;5082639;28;20025;-86
2021/12/15 03:41:01;;;;;;;14.13;6.45;;;;;;;;;;5075138;28;20024;-84
2021/12/15 03:43:27;;;;;;;11.98;7.60;;;;;;;;;;5069831;28;20031;-82
2021/12/15 03:45:59;;;;;;;12.60;5.47;;;;;;;;;;5077468;28;20028;-83
2021/12/15 03:48:30;;;;;;;12.55;6.30;;;;;;;;;;5068661;28;20028;-84
2021/12/15 03:50:56;;;;;;;12.13;4.68;;;;;;;;;;5067613;28;20024;-84
2021/12/15 03:53:24;;;;;;;10.73;5.15;;;;;;;;;;5065545;28;20443;-84
2021/12/15 03:55:50;;;;;;;9.13;5.10;;;;;;;;;;5068099;28;20028;-82
2021/12/15 03:58:19;;;;;;;8.10;5.30;;;;;;;;;;5060882;28;20404;-83
2021/12/15 04:00:54;;;;;;;9.13;5.57;;;;;;;;;;5065842;28;20482;-83
2021/12/15 04:03:26;;;;;;;8.60;4.80;;;;;;;;;;5063778;28;20029;-85
2021/12/15 04:05:53;;;;;;;9.30;5.28;;;;;;;;;;5065401;28;20028;-85
2021/12/15 04:08:19;;;;;;;12.15;4.63;;;;;;;;;;5063282;28;20036;-84
2021/12/15 04:10:45;;;;;;;8.95;4.68;;;;;;;;;;5078979;28;20032;-84
2021/12/15 04:13:13;;;;;;;9.75;5.13;;;;;;;;;;5079502;28;20106;-85
2021/12/15 04:15:52;;;;;;;8.63;4.78;;;;;;;;;;5064181;28;20036;-84
2021/12/15 04:18:17;;;;;;;7.80;4.83;;;;;;;;;;5070375;28;20055;-83
2021/12/15 04:20:43;;;;;;;13.30;5.78;;;;;;;;;;5087538;28;20269;-84
2021/12/15 04:23:11;;;;;;;10.18;6.13;;;;;;;;;;5072108;28;20021;-83
2021/12/15 04:25:38;;;;;;;9.07;5.18;;;;;;;;;;5084911;28;20448;-82
2021/12/15 04:28:11;;;;;;;11.10;5.97;;;;;;;;;;5065705;28;20028;-84
2021/12/15 04:30:43;;;;;;;14.48;8.85;;;;;;;;;;5061607;28;20021;-87
2021/12/15 04:33:35;;;;;;;12.10;7.35;;;;;;;;;;5085735;28;20116;-86
2021/12/15 04:36:02;;;;;;;13.43;7.28;;;;;;;;;;5075400;28;20530;-86
2021/12/15 04:38:31;;;;;;;14.95;7.88;;;;;;;;;;5060940;28;20104;-84
2021/12/15 04:40:59;;;;;;;13.05;7.35;;;;;;;;;;5063823;28;20031;-85
2021/12/15 04:43:29;;;;;;;11.75;6.45;;;;;;;;;;5062498;28;20436;-85
2021/12/15 04:45:55;;;;;;;;;;;;;;;;;;5078160;28;20112;-85
2021/12/15 04:48:20;;;;;;;;;;;;;;;;;;5071103;28;19995;-87
2021/12/15 04:50:46;;;;;;;;;;;;;;;;;;5062559;28;20374;-85
2021/12/15 04:53:11;;;;;;;;;;;;;;;;;;5075502;28;19928;-85
2021/12/15 04:55:37;;;;;;;;;;;;;;;;;;5056709;28;19999;-87
2021/12/15 04:58:04;;;;;;;;;;;;;;;;;;5059173;28;19973;-85
2021/12/15 05:00:32;;;;;;;;;;;;;;;;;;5068152;28;19944;-86
2021/12/15 05:02:58;;;;;;;;;;;;;;;;;;5062050;28;19920;-85
2021/12/15 05:05:24;;;;;;;;;;;;;;;;;;5084224;28;20278;-86
2021/12/15 05:07:49;;;;;;;;;;;;;;;;;;5077474;28;20423;-84
2021/12/15 05:10:15;;;;;;;;;;;;;;;;;;5069099;28;19960;-84
2021/12/15 05:12:41;;;;;;;;;;;;;;;;;;5076478;28;20101;-83
2021/12/15 05:15:07;;;;;;;;;;;;;;;;;;5083093;28;19999;-86
2021/12/15 05:17:32;;;;;;;;;;;;;;;;;;5071612;28;19912;-84
2021/12/15 05:20:02;;;;;;;;;;;;;;;;;;5068407;28;20021;-83
2021/12/15 05:22:28;;;;;;;;;;;;;;;;;;5058242;28;19923;-86
2021/12/15 05:24:53;;;;;;;;;;;;;;;;;;5067502;28;20003;-88
2021/12/15 05:27:18;;;;;;;;;;;;;;;;;;5064919;28;19912;-86
2021/12/15 05:29:45;;;;;;;;;;;;;;;;;;5079545;28;19955;-87
2021/12/15 05:32:11;;;;;;;;;;;;;;;;;;5064833;28;20036;-84
2021/12/15 05:34:37;;;;;;;;;;;;;;;;;;5069086;28;19971;-83
2021/12/15 05:37:03;;;;;;;;;;;;;;;;;;5070554;28;19912;-83
2021/12/15 05:39:29;;;;;;;;;;;;;;;;;;5067088;28;20343;-86
2021/12/15 05:41:54;;;;;;;;;;;;;;;;;;5065572;28;20364;-84
2021/12/15 05:44:20;;;;;;;;;;;;;;;;;;5084451;28;19916;-86
2021/12/15 05:46:46;;;;;;;;;;;;;;;;;;5084094;28;19966;-85
2021/12/15 05:49:11;;;;;;;;;;;;;;;;;;5062883;28;20314;-85
2021/12/15 05:51:37;;;;;;;;;;;;;;;;;;5068926;28;19916;-85
2021/12/15 05:54:04;;;;;;;;;;;;;;;;;;5068693;28;19912;-84
2021/12/15 05:56:29;;;;;;;;;;;;;;;;;;5062216;28;19917;-86
2021/12/15 05:58:54;;;;;;;;;;;;;;;;;;5090936;28;19965;-84
2021/12/15 06:01:20;;;;;;;;;;;;;;;;;;5062781;28;19920;-86
2021/12/15 06:03:45;;;;;;;;;;;;;;;;;;5068932;28;20309;-87
2021/12/15 06:06:11;;;;;;;;;;;;;;;;;;5075447;28;19916;-84
2021/12/15 06:08:37;;;;;;;;;;;;;;;;;;5062072;28;19923;-86
2021/12/15 06:11:03;;;;;;;;;;;;;;;;;;5070883;28;19919;-84
2021/12/15 06:13:29;;;;;;;;;;;;;;;;;;5075911;28;20359;-85
2021/12/15 06:15:55;;;;;;;;;;;;;;;;;;5082589;28;19917;-82
2021/12/15 06:18:21;;;;;;;;;;;;;;;;;;5071108;28;19916;-83
2021/12/15 06:20:47;;;;;;;;;;;;;;;;;;5080051;28;20374;-83
2021/12/15 06:23:18;;;;;;;;;;;;;;;;;;5070198;28;20003;-84
2021/12/15 06:25:45;;;;;;;;;;;;;;;;;;5067109;28;20022;-82
2021/12/15 06:28:10;;;;;;;;;;;;;;;;;;5082758;28;19961;-84
2021/12/15 06:30:36;;;;;;;;;;;;;;;;;;5077936;28;19916;-84
2021/12/15 06:33:02;;;;;;;;;;;;;;;;;;5070927;28;20329;-81
2021/12/15 06:35:27;;;;;;;;;;;;;;;;;;5069172;28;19912;-84
2021/12/15 06:37:53;;;;;;;;;;;;;;;;;;5073713;28;19941;-83
2021/12/15 06:40:18;;;;;;;;;;;;;;;;;;5073643;28;19912;-83
2021/12/15 06:42:44;;;;;;;;;;;;;;;;;;5073239;28;19970;-83
2021/12/15 06:45:13;;;;;;;;;;;;;;;;;;5072405;28;19923;-83
2021/12/15 06:58:17;;;;;;;;;;;;;;;;;;5071350;28;20309;-83
2021/12/15 07:00:49;;;;;;;;;;;;;;;;;;5072844;28;19920;-84
2021/12/15 07:03:17;;;;;;;;;;;;;;;;;;5066726;28;20011;-84
2021/12/15 07:05:43;;;;;;;;;;;;;;;;;;5065371;28;19912;-84
2021/12/15 07:08:10;;;;;;;;;;;;;;;;;;5064277;28;20007;-84
2021/12/15 07:10:38;;;;;;;;;;;;;;;;;;5070150;28;20272;-85
2021/12/15 07:13:04;;;;;;;;;;;;;;;;;;5069560;28;19924;-83
2021/12/15 07:15:32;;;;;;;;;;;;;;;;;;5066192;28;19912;-86
2021/12/15 07:18:02;;;;;;;;;;;;;;;;;;5077817;28;19924;-84
2021/12/15 07:23:05;;;;;;;;;;;;;;;;;;5064654;28;19917;-81
2021/12/15 07:25:31;;;;;;;;;;;;;;;;;;5073161;28;19919;-80
2021/12/15 07:27:56;;;;;;;;;;;;;;;;;;5067016;28;20306;-81
2021/12/15 07:30:22;;;;;;;;;;;;;;;;;;5060143;28;20509;-80
2021/12/15 07:35:42;;;;;;;;;;;;;;;;;;5065999;28;19948;-80
2021/12/15 07:38:15;;;;;;;;;;;;;;;;;;5071657;28;19986;-79
2021/12/15 07:43:54;;;;;;;;;;;;;;;;;;5042779;28;19924;-80
2021/12/15 07:46:24;;;;;;;;;;;;;;;;;;5044769;28;20015;-79
2021/12/15 07:48:50;;;;;;;;;;;;;;;;;;5044888;28;19916;-79
2021/12/15 07:51:15;;;;;;;;;;;;;;;;;;5056630;28;20396;-82
2021/12/15 07:53:41;;;;;;;;;;;;;;;;;;5068818;28;19919;-80
2021/12/15 07:56:07;;;;;;;;;;;;;;;;;;5066760;28;19941;-81
2021/12/15 07:58:32;;;;;;;;;;;;;;;;;;5066136;28;19987;-80
2021/12/15 08:00:59;;;;;;;;;;;;;;;;;;5079599;28;20333;-81
2021/12/15 08:03:25;;;;;;;;;;;;;;;;;;5063813;28;20403;-80
2021/12/15 08:05:52;;;;;;;;;;;;;;;;;;5068796;28;19912;-80
2021/12/15 08:08:17;;;;;;;;;;;;;;;;;;5059172;28;19916;-81
2021/12/15 08:10:43;;;;;;;;;;;;;;;;;;5066533;28;19923;-80
2021/12/15 08:13:10;;;;;;;;;;;;;;;;;;5061942;28;20264;-80
2021/12/15 08:15:35;;;;;;;;;;;;;;;;;;5058686;28;19912;-80
2021/12/15 08:18:01;;;;;;;;;;;;;;;;;;5066424;28;20318;-79
2021/12/15 08:20:28;;;;;;;;;;;;;;;;;;5075837;28;19912;-79
2021/12/15 08:22:54;;;;;;;;;;;;;;;;;;5070635;28;19924;-79
2021/12/15 08:25:20;;;;;;;;;;;;;;;;;;5066829;28;19981;-79
2021/12/15 08:27:46;;;;;;;;;;;;;;;;;;5060250;28;19916;-78
2021/12/15 08:30:20;;;;;;;;;;;;;;;;;;5061299;28;19919;-79
2021/12/15 08:32:50;;;;;;;;;;;;;;;;;;5069197;28;19921;-79
2021/12/15 08:35:17;;;;;;;;;;;;;;;;;;5067800;28;19978;-79
2021/12/15 08:37:42;;;;;;;;;;;;;;;;;;5076722;28;19920;-79
2021/12/15 08:40:08;;;;;;;;;;;;;;;;;;5069011;28;19912;-79
2021/12/15 08:42:33;;;;;;;;;;;;;;;;;;5068487;28;19916;-80
2021/12/15 08:44:59;;;;;;;;;;;;;;;;;;5067677;28;19912;-79
2021/12/15 08:47:34;;;;;;;;;;;;;;;;;;5067842;28;19978;-80
2021/12/15 08:49:59;;;;;;;;;;;;;;;;;;5064167;28;19916;-79
2021/12/15 08:52:25;;;;;;;;;;;;;;;;;;5063661;28;19912;-78
2021/12/15 08:54:50;;;;;;;;;;;;;;;;;;5067168;28;19908;-80
2021/12/15 08:57:16;;;;;;;;;;;;;;;;;;5064078;28;20684;-79
2021/12/15 08:59:41;;;;;;;;;;;;;;;;;;5054342;28;19917;-79
2021/12/15 09:02:10;;;;;;;;;;;;;;;;;;5065248;28;19919;-80
2021/12/15 09:04:35;;;;;;;;;;;;;;;;;;5065015;28;19920;-79
2021/12/15 09:07:03;;;;;;;;;;;;;;;;;;5068032;28;19919;-79
2021/12/15 09:09:28;;;;;;;;;;;;;;;;;;5061490;28;19998;-79
2021/12/15 09:11:54;;;;;;;;;;;;;;;;;;5062242;28;20007;-79
2021/12/15 09:14:20;;;;;;;;;;;;;;;;;;5064765;28;19912;-78
2021/12/15 09:16:47;;;;;;;;;;;;;;;;;;5062735;28;19916;-80
2021/12/15 09:19:12;;;;;;;;;;;;;;;;;;5078746;28;19920;-79
2021/12/15 09:21:38;;;;;;;;;;;;;;;;;;5065777;28;19920;-80
2021/12/15 09:24:05;;;;;;;;;;;;;;;;;;5061849;28;19924;-79
2021/12/15 09:26:30;;;;;;;;;;;;;;;;;;5060316;28;19970;-79
2021/12/15 09:28:56;;;;;;;;;;;;;;;;;;5056037;28;19952;-79
2021/12/15 09:31:22;;;;;;;;;;;;;;;;;;5068282;28;20341;-79
2021/12/15 09:33:54;;;;;;;;;;;;;;;;;;5072837;28;19918;-79
2021/12/15 09:36:20;;;;;;;;;;;;;;;;;;5064243;28;19912;-80
2021/12/15 09:38:48;;;;;;;;;;;;;;;;;;5073691;28;19913;-79
2021/12/15 09:41:14;;;;;;;;;;;;;;;;;;5072058;28;19912;-79
2021/12/15 09:43:41;;;;;;;;;;;;;;;;;;5076475;28;19912;-80
2021/12/15 09:46:18;;;;;;;;;;;;;;;;;;5070890;28;20477;-79
2021/12/15 10:02:35;;;;;;;;;;;;;;;;;;5063359;28;20441;-80
2021/12/15 10:05:31;;;;;;;;;;;;;;;;;;5083115;28;19927;-79
2021/12/15 10:19:42;;;;;;;;;;;;;;;;;;5071043;28;19969;-79
2021/12/15 10:22:11;;;;;;;;;;;;;;;;;;5084475;28;19912;-79
2021/12/15 10:24:51;;;;;;;;;;;;;;;;;;5072895;28;19939;-79
2021/12/15 10:27:31;;;;;;;;;;;;;;;;;;5081764;28;19920;-80
2021/12/15 10:29:57;;;;;;;;;;;;;;;;;;5073483;28;19919;-79
2021/12/15 10:32:26;;;;;;;;;;;;;;;;;;5073037;28;19985;-79
2021/12/15 10:34:59;;;;;;;;;;;;;;;;;;5071136;28;19924;-79
2021/12/15 10:37:24;;;;;;;;;;;;;;;;;;5070952;28;19940;-80
2021/12/15 10:40:08;;;;;;;;;;;;;;;;;;5062346;28;19920;-80
2021/12/15 10:42:33;;;;;;;;;;;;;;;;;;5069403;28;19924;-79
2021/12/15 10:45:06;;;;;;;;;;;;;;;;;;5069579;28;19912;-80
2021/12/15 10:47:38;;;;;;;;;;;;;;;;;;5064654;28;20284;-80
2021/12/15 10:53:11;;;;;;;;;;;;;;;;;;5054993;28;19919;-79
2021/12/15 10:55:37;;;;;;;;;;;;;;;;;;5067887;28;19916;-79
2021/12/15 10:58:22;;;;;;;;;;;;;;;;;;5065150;28;19939;-82
2021/12/15 11:00:47;;;;;;;;;;;;;;;;;;5069710;28;19912;-81
2021/12/15 11:03:16;;;;;;;;;;;;;;;;;;5070120;28;19927;-81
2021/12/15 11:05:42;;;;;;;;;;;;;;;;;;5064888;28;19989;-80
2021/12/15 11:08:07;;;;;;;;;;;;;;;;;;5064019;28;19912;-80
2021/12/15 11:10:35;;;;;;;;;;;;;;;;;;5080337;28;20399;-80
2021/12/15 11:13:08;;;;;;;;;;;;;;;;;;5064609;28;19927;-80
2021/12/15 11:15:44;;;;;;;;;;;;;;;;;;5059997;28;20015;-80
2021/12/15 11:18:24;;;;;;;;;;;;;;;;;;5070283;28;19916;-81
2021/12/15 11:20:52;;;;;;;;;;;;;;;;;;5070400;28;19916;-81
2021/12/15 11:23:18;;;;;;;;;;;;;;;;;;5062822;28;19916;-81
2021/12/15 11:25:50;;;;;;;;;;;;;;;;;;5070595;28;19912;-81
2021/12/15 11:28:20;;;;;;;;;;;;;;;;;;5069136;28;19981;-82
2021/12/15 11:30:51;;;;;;;;;;;;;;;;;;5070613;28;19916;-81
2021/12/15 11:33:18;;;;;;;;;;;;;;;;;;5082912;28;20364;-81
2021/12/15 11:35:46;;;;;;;;;;;;;;;;;;5067427;28;19939;-81
2021/12/15 11:38:13;;;;;;;;;;;;;;;;;;5061322;28;20040;-81
2021/12/15 11:40:41;;;;;;;;;;;;;;;;;;5073000;28;19987;-81
2021/12/15 11:43:07;;;;;;;;;;;;;;;;;;5069810;28;19921;-81
2021/12/15 11:45:34;;;;;;;;;;;;;;;;;;5063475;28;19921;-81
2021/12/15 11:48:09;;;;;;;;;;;;;;;;;;5059770;28;19916;-82
2021/12/15 11:50:37;;;;;;;;;;;;;;;;;;5086858;28;19962;-82
2021/12/15 11:53:02;;;;;;;;;;;;;;;;;;5067157;28;20399;-81
2021/12/15 11:55:31;;;;;;;;;;;;;;;;;;5074495;28;19917;-82
2021/12/15 11:57:58;;;;;;;;;;;;;;;;;;5069481;28;19920;-81
2021/12/15 12:00:26;;;;;;;;;;;;;;;;;;5067369;28;19920;-81
2021/12/15 12:02:54;;;;;;;;;;;;;;;;;;5080218;28;19923;-80
2021/12/15 12:05:21;;;;;;;;;;;;;;;;;;5068130;28;19919;-80
2021/12/15 12:07:54;;;;;;;;;;;;;;;;;;5067546;28;19943;-80
2021/12/15 12:10:22;;;;;;;;;;;;;;;;;;5066646;28;20330;-79
2021/12/15 12:13:02;;;;;;;;;;;;;;;;;;5062616;28;19923;-81
2021/12/15 12:15:27;;;;;;;;;;;;;;;;;;5066473;28;20501;-81
2021/12/15 12:17:55;;;;;;;;;;;;;;;;;;5064868;28;19916;-81
2021/12/15 12:20:27;;;;;;;;;;;;;;;;;;5064167;28;19927;-80
2021/12/15 12:22:53;;;;;;;;;;;;;;;;;;5065292;28;20057;-81
2021/12/15 12:25:24;;;;;;;;;;;;;;;;;;5066211;28;20383;-81
2021/12/15 12:27:50;;;;;;;;;;;;;;;;;;5066022;28;20002;-81
2021/12/15 12:30:22;;;;;;;;;;;;;;;;;;5071960;28;20004;-80
2021/12/15 12:32:48;;;;;;;;;;;;;;;;;;5067608;28;19991;-81
2021/12/15 12:35:16;;;;;;;;;;;;;;;;;;5070915;28;20034;-82
2021/12/15 12:37:42;;;;;;;;;;;;;;;;;;5070380;28;19912;-80
2021/12/15 12:40:30;;;;;;;;;;;;;;;;;;5065600;28;20391;-80
2021/12/15 12:42:56;;;;;;;;;;;;;;;;;;5075225;28;19920;-82
2021/12/15 12:45:27;;;;;;;;;;;;;;;;;;5066738;28;19919;-80
2021/12/15 13:01:07;;;;;;;;;;;;;;;;;;5068935;28;19923;-80
2021/12/15 13:03:39;;;;;;;;;;;;;;;;;;5060599;28;19946;-81
2021/12/15 13:06:12;;;;;;;;;;;;;;;;;;5071317;28;19920;-81
2021/12/15 13:08:40;;;;;;;;;;;;;;;;;;5069976;28;19917;-81
2021/12/15 13:11:05;;;;;;;;;;;;;;;;;;5070740;28;19957;-81
2021/12/15 13:13:33;;;;;;;;;;;;;;;;;;5070299;28;19920;-80
2021/12/15 13:16:08;;;;;;;;;;;;;;;;;;5065359;28;19916;-79
2021/12/15 13:18:50;;;;;;;;;;;;;;;;;;5067526;28;19955;-81
2021/12/15 13:21:19;;;;;;;;;;;;;;;;;;5070666;28;19912;-81
2021/12/15 13:23:54;;;;;;;;;;;;;;;;;;5068779;28;19957;-81
2021/12/15 13:29:24;;;;;;;;;;;;;;;;;;5067620;28;19965;-82
2021/12/15 13:31:57;;;;;;;;;;;;;;;;;;5071071;28;20431;-81
2021/12/15 13:34:36;;;;;;;;;;;;;;;;;;5070619;28;19974;-79
2021/12/15 13:37:02;;;;;;;;;;;;;;;;;;5065301;28;20330;-79
2021/12/15 13:39:39;;;;;;;;;;;;;;;;;;5064151;28;19919;-79
2021/12/15 13:42:11;;;;;;;;;;;;;;;;;;5063398;28;19912;-80
2021/12/15 13:44:42;;;;;;;;;;;;;;;;;;5065286;28;19912;-80
2021/12/15 13:47:09;;;;;;;;;;;;;;;;;;5080080;28;19990;-81
2021/12/15 13:49:45;;;;;;;;;;;;;;;;;;5067048;28;19957;-81
2021/12/15 13:52:17;;;;;;;;;;;;;;;;;;5078345;28;19916;-80
2021/12/15 13:54:42;;;;;;;;;;;;;;;;;;5064401;28;19991;-80
2021/12/15 13:57:14;;;;;;;;;;;;;;;;;;5077988;28;20004;-80
2021/12/15 13:59:41;;;;;;;;;;;;;;;;;;5064388;28;19926;-80
2021/12/15 14:02:10;;;;;;;;;;;;;;;;;;5064660;28;20328;-83
2021/12/15 14:04:40;;;;;;;;;;;;;;;;;;5069447;28;19912;-82
2021/12/15 14:07:24;;;;;;;;;;;;;;;;;;5065406;28;19916;-80
2021/12/15 14:09:49;;;;;;;;;;;;;;;;;;5066043;28;20019;-80
2021/12/15 14:12:15;;;;;;;;;;;;;;;;;;5063875;28;19995;-81
2021/12/15 14:14:44;;;;;;;;;;;;;;;;;;5070441;28;20371;-81
2021/12/15 14:17:10;;;;;;;;;;;;;;;;;;5067640;28;19912;-81
2021/12/15 14:19:39;;;;;;;;;;;;;;;;;;5073174;28;19916;-80
2021/12/15 14:22:07;;;;;;;;;;;;;;;;;;5069159;28;20011;-79
2021/12/15 14:24:32;;;;;;;;;;;;;;;;;;5073823;28;20391;-81
2021/12/15 14:26:58;;;;;;;;;;;;;;;;;;5073123;28;19964;-81
2021/12/15 14:29:25;;;;;;;;;;;;;;;;;;5065590;28;20371;-80
2021/12/15 14:31:52;;;;;;;;;;;;;;;;;;5065549;28;19960;-80
2021/12/15 14:34:21;;;;;;;;;;;;;;;;;;5067502;28;19944;-81
2021/12/15 14:36:49;;;;;;;;;;;;;;;;;;5079487;28;20340;-81
2021/12/15 14:39:22;;;;;;;;;;;;;;;;;;5066103;28;19919;-80
2021/12/15 14:41:55;;;;;;;;;;;;;;;;;;5063017;28;19947;-79
2021/12/15 14:44:23;;;;;;;;;;;;;;;;;;5084931;28;19916;-79
2021/12/15 14:46:53;;;;;;;;;;;;;;;;;;5069363;28;19919;-80
2021/12/15 14:49:18;;;;;;;;;;;;;;;;;;5060851;28;19916;-80
2021/12/15 14:51:46;;;;;;;;;;;;;;;;;;5066768;28;19913;-80
2021/12/15 14:54:13;;;;;;;;;;;;;;;;;;5070553;28;20284;-81
2021/12/15 14:56:51;;;;;;;;;;;;;;;;;;5067291;28;19959;-81
2021/12/15 14:59:18;;;;;;;;;;;;;;;;;;5067349;28;19913;-80
2021/12/15 15:01:44;;;;;;;;;;;;;;;;;;5068983;28;19920;-81
2021/12/15 15:04:13;;;;;;;;;;;;;;;;;;5063291;28;19928;-81
2021/12/15 15:06:39;;;;;;;;;;;;;;;;;;5072748;28;19948;-83
2021/12/15 15:09:11;;;;;;;;;;;;;;;;;;5069268;28;20339;-83
2021/12/15 15:11:37;;;;;;;;;;;;;;;;;;5086456;28;20448;-82
2021/12/15 15:14:02;;;;;;;;;;;;;;;;;;5063924;28;20362;-82
2021/12/15 15:16:33;;;;;;;;;;;;;;;;;;5076244;28;19923;-83
2021/12/15 15:19:05;;;;;;;;;;;;;;;;;;5078302;28;19969;-82
2021/12/15 15:21:32;;;;;;;;;;;;;;;;;;5068299;28;19916;-83
2021/12/15 15:23:58;;;;;;;;;;;;;;;;;;5069387;28;19974;-83
2021/12/15 15:26:26;;;;;;;;;;;;;;;;;;5064272;28;19979;-83
2021/12/15 15:28:51;;;;;;;;;;;;;;;;;;5086187;28;19916;-83
2021/12/15 15:31:19;;;;;;;;;;;;;;;;;;5085668;28;20394;-84
2021/12/15 15:33:45;;;;;;;;;;;;;;;;;;5068262;28;19916;-83
2021/12/15 15:36:15;;;;;;;;;;;;;;;;;;5068171;28;20356;-83
2021/12/15 15:38:45;;;;;;;;;;;;;;;;;;5067293;28;20624;-83
2021/12/15 15:41:17;;;;;;;;;;;;;;;;;;5066290;28;19916;-80
2021/12/15 15:43:44;;;;;;;;;;;;;;;;;;5063581;28;19959;-82
2021/12/15 15:46:12;;;;;;;;;;;;;;;;;;5067344;28;20367;-82
2021/12/15 15:48:40;;;;;;;;;;;;;;;;;;5069350;28;20282;-83
2021/12/15 15:51:05;;;;;;;;;;;;;;;;;;5068506;28;19977;-84
2021/12/15 15:53:30;;;;;;;;;;;;;;;;;;5066960;28;19912;-84
2021/12/15 15:56:05;;;;;;;;;;;;;;;;;;5071439;28;19912;-81
2021/12/15 15:58:31;;;;;;;;;;;;;;;;;;5069381;28;19918;-84
2021/12/15 16:00:58;;;;;;;;;;;;;;;;;;5068789;28;19912;-82
2021/12/15 16:03:25;;;;;;;;;;;;;;;;;;5062240;28;19920;-83
2021/12/15 16:05:51;;;;;;;;;;;;;;;;;;5066153;28;19913;-80
2021/12/15 16:08:17;;;;;;;;;;;;;;;;;;5071596;28;20401;-80
2021/12/15 16:10:44;;;;;;;;;;;;;;;;;;5067263;28;19912;-83
2021/12/15 16:13:12;;;;;;;;;;;;;;;;;;5067806;28;19916;-84
2021/12/15 16:15:48;;;;;;;;;;;;;;;;;;5066980;28;19920;-85
2021/12/15 16:18:24;;;;;;;;;;;;;;;;;;5066894;28;19950;-83
2021/12/15 16:23:28;;;;;;;;;;;;;;;;;;5070151;28;19916;-80
2021/12/15 16:25:54;;;;;;;;;;;;;;;;;;5071040;28;20307;-80
2021/12/15 16:28:21;;;;;;;;;;;;;;;;;;5064633;28;19924;-80
2021/12/15 16:30:51;;;;;;;;;;;;;;;;;;5066934;28;20279;-80
2021/12/15 16:33:19;;;;;;;;;;;;;;;;;;5063400;28;19916;-80
2021/12/15 16:35:44;;;;;;;;;;;;;;;;;;5063140;28;19934;-83
2021/12/15 16:38:24;;;;;;;;;;;;;;;;;;5068093;28;19916;-82
2021/12/15 16:40:53;;;;;;;;;;;;;;;;;;5060831;28;19919;-84
2021/12/15 16:43:18;;;;;;;;;;;;;;;;;;5080388;28;20003;-84
2021/12/15 16:45:44;;;;;;;;;;;;;;;;;;5067891;28;20000;-83
2021/12/15 16:48:19;;;;;;;;;;;;;;;;;;5064188;28;19917;-85
2021/12/15 16:51:04;;;;;;;;;;;;;;;;;;5084811;28;19999;-84
2021/12/15 16:53:50;;;;;;;;;;;;;;;;;;5061121;28;19912;-82
2021/12/15 16:56:27;;;;;;;;;;;;;;;;;;5068346;28;20063;-83
2021/12/15 16:59:04;;;;;;;;;;;;;;;;;;5066290;28;19920;-81
2021/12/15 17:01:34;;;;;;;;;;;;;;;;;;5065861;28;20429;-82
2021/12/15 17:03:59;;;;;;;;;;;;;;;;;;5063886;28;19916;-83
2021/12/15 17:06:24;;;;;;;;;;;;;;;;;;5065598;28;19947;-82
2021/12/15 17:08:50;;;;;;;;;;;;;;;;;;5066443;28;19916;-81
2021/12/15 17:11:17;;;;;;;;;;;;;;;;;;5065663;28;20385;-81
2021/12/15 17:13:43;;;;;;;;;;;;;;;;;;5070527;28;19916;-81
2021/12/15 17:16:11;;;;;;;;;;;;;;;;;;5061733;28;20287;-79
2021/12/15 17:18:41;;;;;;;;;;;;;;;;;;5070844;28;19920;-81
2021/12/15 17:21:12;;;;;;;;;;;;;;;;;;5070273;28;19916;-80
2021/12/15 17:23:42;;;;;;;;;;;;;;;;;;5084207;28;19924;-80
2021/12/15 17:26:10;;;;;;;;;;;;;;;;;;5065320;28;20363;-81
2021/12/15 17:28:37;;;;;;;;;;;;;;;;;;5069654;28;19996;-80
2021/12/15 17:31:14;;;;;;;;;;;;;;;;;;5066683;28;19940;-81
2021/12/15 17:33:45;;;;;;;;;;;;;;;;;;5068246;28;19916;-81
2021/12/15 17:36:15;;;;;;;;;;;;;;;;;;5069982;28;19912;-81
2021/12/15 17:38:45;;;;;;;;;;;;;;;;;;5068605;28;19916;-80
2021/12/15 17:41:11;;;;;;;;;;;;;;;;;;5068165;28;20355;-80
2021/12/15 17:43:39;;;;;;;;;;;;;;;;;;5069302;28;20248;-80
2021/12/15 17:46:14;;;;;;;;;;;;;;;;;;5069685;28;20278;-80
2021/12/15 17:48:40;;;;;;;;;;;;;;;;;;5070547;28;19912;-80
2021/12/15 17:51:05;;;;;;;;;;;;;;;;;;5070714;28;20298;-81
2021/12/15 17:53:31;;;;;;;;;;;;;;;;;;5062934;28;19912;-81
2021/12/15 17:55:57;;;;;;;;;;;;;;;;;;5071653;28;19912;-81